Boca Raton, FL (33427)

12:31 PM EDT on April 29, 2017 (GMT -0400)
Boca Villas | | Change Station

Elev 23 ft 26.36 °N, 80.08 °W | Updated 10 minutes ago

Partly Cloudy
Partly Cloudy
86.4 °F
Feels Like 96 °F
N
1.0
Wind Variable Wind from South
Gusts 4.0 mph

Today
High -- | Low -- °F
--% Chance of Precip.
Yesterday
High -- | Low -- °F
Precip. -- in
Pressure 30.16 in
Visibility 10.0 miles
Clouds Few 2300 ft
Scattered Clouds 3000 ft
Heat Index 96 °F
Dew Point 75 °F
Humidity 69%
Rainfall 0.00 in
Snow Depth Not available.
6:44 AM 7:51 PM
Waxing Crescent, 14% visible
METAR KPMP 291553Z 11013KT 10SM FEW023 SCT030 29/22 A3016 RMK AO2 SLP213 T02890217
Pressure 30.16 in
Visibility 10.0 miles
Clouds Few 2300 ft
Scattered Clouds 3000 ft
Heat Index 96 °F
Dew Point 75 °F
Humidity 69%
Rainfall 0.00 in
Snow Depth Not available.
6:44 AM 7:51 PM
Waxing Crescent, 14% visible
METAR KPMP 291553Z 11013KT 10SM FEW023 SCT030 29/22 A3016 RMK AO2 SLP213 T02890217

Get Severe Weather Alerts

Thanks for signing up!

Be on the lookout for a verification email in your inbox.

You'll start receiving the daily forecast at 8 AM.

×

10-Day Weather Forecast

Almanac

Astronomy

Apr. 29, 2017 Rise Set
Actual Time
Civil Twilight
Nautical Twilight
Astronomical Twilight
Moon
Length of Visible Light
Length of Day
Tomorrow will be .
, % of the Moon is Illuminated

Today's Extremes

State Highs State Lows

Community

WunderPhotos

WunderBlog® & News

Nearby

Air Quality

  Air Quality AQ Index Pollutant
Not available.

Snow Depth

Station Depth Elevation

Earthquake Activity

City Distance Mag. Time & Date
Minimum magnitude displayed is 2.5.

Coastal Water Temperatures

Place Temperature

Stations

Nearby Weather Stations

Station Location Temp. Windchill Dew Point Humidity Wind Precip. Elev Updated Type
                   

Watches & Warnings

There are currently no watches in effect.